sensor_id;sensor_type;location;lat;lon;timestamp;pressure;altitude;pressure_sealevel;temperature;humidity
1832;BME280;1680;48.106;11.708;2022-12-17T00:02:17;95546.63;;;-0.62;100.00
1832;BME280;1680;48.106;11.708;2022-12-17T00:05:04;95543.13;;;-0.53;100.00
1832;BME280;1680;48.106;11.708;2022-12-17T00:07:55;95546.66;;;-0.54;100.00
1832;BME280;1680;48.106;11.708;2022-12-17T00:10:42;95551.16;;;-0.56;100.00
1832;BME280;1680;48.106;11.708;2022-12-17T00:13:26;95537.81;;;-0.52;100.00
1832;BME280;1680;48.106;11.708;2022-12-17T00:16:11;95558.69;;;-0.63;100.00
1832;BME280;1680;48.106;11.708;2022-12-17T00:18:56;95556.88;;;-0.70;100.00
1832;BME280;1680;48.106;11.708;2022-12-17T00:21:41;95561.03;;;-0.77;100.00
1832;BME280;1680;48.106;11.708;2022-12-17T00:24:26;95569.47;;;-0.59;100.00
1832;BME280;1680;48.106;11.708;2022-12-17T00:27:13;95575.56;;;-0.68;100.00
1832;BME280;1680;48.106;11.708;2022-12-17T00:29:57;95578.25;;;-0.78;100.00
1832;BME280;1680;48.106;11.708;2022-12-17T00:32:42;95575.78;;;-0.87;100.00
1832;BME280;1680;48.106;11.708;2022-12-17T00:35:27;95578.75;;;-0.66;100.00
1832;BME280;1680;48.106;11.708;2022-12-17T00:38:14;95582.53;;;-0.86;100.00
1832;BME280;1680;48.106;11.708;2022-12-17T00:40:59;95590.41;;;-0.88;100.00
1832;BME280;1680;48.106;11.708;2022-12-17T00:43:45;95601.75;;;-0.73;100.00
1832;BME280;1680;48.106;11.708;2022-12-17T00:46:30;95597.88;;;-0.77;100.00
1832;BME280;1680;48.106;11.708;2022-12-17T00:49:15;95605.53;;;-0.85;100.00
1832;BME280;1680;48.106;11.708;2022-12-17T00:52:00;95607.31;;;-0.85;100.00
1832;BME280;1680;48.106;11.708;2022-12-17T00:54:42;95612.47;;;-0.85;100.00
1832;BME280;1680;48.106;11.708;2022-12-17T00:57:27;95615.16;;;-0.87;100.00
1832;BME280;1680;48.106;11.708;2022-12-17T01:00:24;95617.84;;;-0.96;100.00
1832;BME280;1680;48.106;11.708;2022-12-17T01:03:11;95623.19;;;-1.15;100.00
1832;BME280;1680;48.106;11.708;2022-12-17T01:06:00;95620.38;;;-1.04;100.00
1832;BME280;1680;48.106;11.708;2022-12-17T01:08:53;95630.22;;;-0.74;100.00
1832;BME280;1680;48.106;11.708;2022-12-17T01:11:38;95632.97;;;-0.93;100.00
1832;BME280;1680;48.106;11.708;2022-12-17T01:14:23;95629.66;;;-0.86;100.00
1832;BME280;1680;48.106;11.708;2022-12-17T01:17:10;95632.94;;;-1.01;100.00
1832;BME280;1680;48.106;11.708;2022-12-17T01:19:55;95635.09;;;-0.89;100.00
1832;BME280;1680;48.106;11.708;2022-12-17T01:22:39;95636.09;;;-1.07;100.00
1832;BME280;1680;48.106;11.708;2022-12-17T01:25:24;95641.03;;;-1.13;100.00
1832;BME280;1680;48.106;11.708;2022-12-17T01:28:08;95650.63;;;-1.23;100.00
1832;BME280;1680;48.106;11.708;2022-12-17T01:30:55;95648.09;;;-1.15;100.00
1832;BME280;1680;48.106;11.708;2022-12-17T01:33:41;95636.88;;;-1.32;100.00
1832;BME280;1680;48.106;11.708;2022-12-17T01:36:26;95662.19;;;-1.19;100.00
1832;BME280;1680;48.106;11.708;2022-12-17T01:39:11;95656.25;;;-1.20;100.00
1832;BME280;1680;48.106;11.708;2022-12-17T01:41:56;95653.31;;;-1.25;100.00
1832;BME280;1680;48.106;11.708;2022-12-17T01:44:47;95635.63;;;-1.28;100.00
1832;BME280;1680;48.106;11.708;2022-12-17T01:47:36;95665.97;;;-0.89;100.00
1832;BME280;1680;48.106;11.708;2022-12-17T01:50:45;95666.69;;;-1.04;100.00
1832;BME280;1680;48.106;11.708;2022-12-17T01:53:35;95678.72;;;-0.87;100.00
1832;BME280;1680;48.106;11.708;2022-12-17T01:56:21;95680.22;;;-1.02;100.00
1832;BME280;1680;48.106;11.708;2022-12-17T01:59:07;95687.09;;;-0.85;100.00
1832;BME280;1680;48.106;11.708;2022-12-17T02:01:53;95697.09;;;-0.99;100.00
1832;BME280;1680;48.106;11.708;2022-12-17T02:04:38;95680.59;;;-1.14;100.00
1832;BME280;1680;48.106;11.708;2022-12-17T02:07:37;95672.66;;;-1.38;100.00
1832;BME280;1680;48.106;11.708;2022-12-17T02:10:34;95691.09;;;-1.08;100.00
1832;BME280;1680;48.106;11.708;2022-12-17T02:13:33;95686.59;;;-1.06;100.00
1832;BME280;1680;48.106;11.708;2022-12-17T02:16:22;95695.78;;;-1.21;100.00
1832;BME280;1680;48.106;11.708;2022-12-17T02:19:26;95702.72;;;-1.21;100.00
1832;BME280;1680;48.106;11.708;2022-12-17T02:22:24;95675.72;;;-1.17;100.00
1832;BME280;1680;48.106;11.708;2022-12-17T02:25:17;95703.34;;;-0.85;100.00
1832;BME280;1680;48.106;11.708;2022-12-17T02:28:09;95691.69;;;-1.14;100.00
1832;BME280;1680;48.106;11.708;2022-12-17T02:30:55;95698.06;;;-1.00;100.00
1832;BME280;1680;48.106;11.708;2022-12-17T02:33:42;95691.75;;;-1.06;100.00
1832;BME280;1680;48.106;11.708;2022-12-17T02:36:27;95698.13;;;-1.10;100.00
1832;BME280;1680;48.106;11.708;2022-12-17T02:39:12;95707.63;;;-1.10;100.00
1832;BME280;1680;48.106;11.708;2022-12-17T02:41:59;95713.00;;;-1.04;100.00
1832;BME280;1680;48.106;11.708;2022-12-17T02:44:45;95706.47;;;-1.16;100.00
1832;BME280;1680;48.106;11.708;2022-12-17T02:47:30;95715.94;;;-1.34;100.00
1832;BME280;1680;48.106;11.708;2022-12-17T02:50:16;95719.84;;;-1.30;100.00
1832;BME280;1680;48.106;11.708;2022-12-17T02:53:01;95715.59;;;-1.21;100.00
1832;BME280;1680;48.106;11.708;2022-12-17T02:55:46;95723.81;;;-1.18;100.00
1832;BME280;1680;48.106;11.708;2022-12-17T02:58:31;95713.91;;;-1.13;100.00
1832;BME280;1680;48.106;11.708;2022-12-17T03:01:17;95717.72;;;-1.17;100.00
1832;BME280;1680;48.106;11.708;2022-12-17T03:04:02;95728.00;;;-1.17;100.00
1832;BME280;1680;48.106;11.708;2022-12-17T03:06:47;95729.81;;;-1.44;100.00
1832;BME280;1680;48.106;11.708;2022-12-17T03:09:32;95729.28;;;-1.48;100.00
1832;BME280;1680;48.106;11.708;2022-12-17T03:12:17;95744.28;;;-1.43;100.00
1832;BME280;1680;48.106;11.708;2022-12-17T03:15:02;95752.47;;;-1.13;100.00
1832;BME280;1680;48.106;11.708;2022-12-17T03:17:48;95745.25;;;-1.27;100.00
1832;BME280;1680;48.106;11.708;2022-12-17T03:20:33;95766.31;;;-1.41;100.00
1832;BME280;1680;48.106;11.708;2022-12-17T03:23:18;95756.19;;;-1.25;100.00
1832;BME280;1680;48.106;11.708;2022-12-17T03:26:03;95769.66;;;-1.31;100.00
1832;BME280;1680;48.106;11.708;2022-12-17T03:28:44;95767.09;;;-1.31;100.00
1832;BME280;1680;48.106;11.708;2022-12-17T03:31:29;95765.47;;;-1.32;100.00
1832;BME280;1680;48.106;11.708;2022-12-17T03:34:14;95765.06;;;-1.37;100.00
1832;BME280;1680;48.106;11.708;2022-12-17T03:36:59;95765.94;;;-1.46;100.00
1832;BME280;1680;48.106;11.708;2022-12-17T03:39:44;95768.75;;;-1.39;100.00
1832;BME280;1680;48.106;11.708;2022-12-17T03:42:29;95768.75;;;-1.39;100.00
1832;BME280;1680;48.106;11.708;2022-12-17T03:45:14;95777.28;;;-1.66;100.00
1832;BME280;1680;48.106;11.708;2022-12-17T03:48:05;95733.31;;;-1.90;100.00
1832;BME280;1680;48.106;11.708;2022-12-17T03:50:52;95770.25;;;-1.64;100.00
1832;BME280;1680;48.106;11.708;2022-12-17T03:53:38;95772.41;;;-1.69;100.00
1832;BME280;1680;48.106;11.708;2022-12-17T03:56:23;95763.09;;;-1.70;100.00
1832;BME280;1680;48.106;11.708;2022-12-17T03:59:09;95771.94;;;-1.82;100.00
1832;BME280;1680;48.106;11.708;2022-12-17T04:01:54;95770.72;;;-1.78;100.00
1832;BME280;1680;48.106;11.708;2022-12-17T04:04:39;95779.06;;;-2.02;100.00
1832;BME280;1680;48.106;11.708;2022-12-17T04:07:25;95780.75;;;-2.20;100.00
1832;BME280;1680;48.106;11.708;2022-12-17T04:10:10;95782.88;;;-2.06;100.00
1832;BME280;1680;48.106;11.708;2022-12-17T04:12:55;95784.13;;;-2.29;100.00
1832;BME280;1680;48.106;11.708;2022-12-17T04:15:48;95799.94;;;-2.34;100.00
1832;BME280;1680;48.106;11.708;2022-12-17T04:18:33;95785.66;;;-2.36;100.00
1832;BME280;1680;48.106;11.708;2022-12-17T04:21:17;95798.34;;;-2.44;100.00
1832;BME280;1680;48.106;11.708;2022-12-17T04:24:04;95797.53;;;-2.35;100.00
1832;BME280;1680;48.106;11.708;2022-12-17T04:26:49;95803.47;;;-2.35;100.00
1832;BME280;1680;48.106;11.708;2022-12-17T04:29:33;95810.63;;;-2.38;100.00
1832;BME280;1680;48.106;11.708;2022-12-17T04:32:18;95816.19;;;-2.33;100.00
1832;BME280;1680;48.106;11.708;2022-12-17T04:35:04;95826.47;;;-2.33;100.00
1832;BME280;1680;48.106;11.708;2022-12-17T04:37:49;95824.94;;;-2.26;100.00
1832;BME280;1680;48.106;11.708;2022-12-17T04:40:35;95824.16;;;-2.36;100.00
1832;BME280;1680;48.106;11.708;2022-12-17T04:43:20;95828.88;;;-2.32;100.00
1832;BME280;1680;48.106;11.708;2022-12-17T04:46:05;95834.81;;;-2.31;100.00
1832;BME280;1680;48.106;11.708;2022-12-17T04:48:50;95830.47;;;-2.21;100.00
1832;BME280;1680;48.106;11.708;2022-12-17T04:51:34;95834.00;;;-2.32;100.00
1832;BME280;1680;48.106;11.708;2022-12-17T04:54:19;95833.47;;;-2.35;100.00
1832;BME280;1680;48.106;11.708;2022-12-17T04:57:05;95839.94;;;-2.31;100.00
1832;BME280;1680;48.106;11.708;2022-12-17T04:59:50;95840.22;;;-2.25;100.00
1832;BME280;1680;48.106;11.708;2022-12-17T05:02:35;95847.25;;;-2.36;100.00
1832;BME280;1680;48.106;11.708;2022-12-17T05:05:20;95846.69;;;-2.30;100.00
1832;BME280;1680;48.106;11.708;2022-12-17T05:08:05;95850.34;;;-2.33;100.00
1832;BME280;1680;48.106;11.708;2022-12-17T05:10:49;95858.59;;;-2.29;100.00
1832;BME280;1680;48.106;11.708;2022-12-17T05:13:47;95860.22;;;-2.28;100.00
1832;BME280;1680;48.106;11.708;2022-12-17T05:16:32;95869.78;;;-2.11;100.00
1832;BME280;1680;48.106;11.708;2022-12-17T05:19:19;95880.47;;;-2.16;100.00
1832;BME280;1680;48.106;11.708;2022-12-17T05:22:04;95881.56;;;-2.18;100.00
1832;BME280;1680;48.106;11.708;2022-12-17T05:24:48;95885.47;;;-2.14;100.00
1832;BME280;1680;48.106;11.708;2022-12-17T05:27:33;95888.44;;;-2.09;100.00
1832;BME280;1680;48.106;11.708;2022-12-17T05:30:19;95889.13;;;-2.07;100.00
1832;BME280;1680;48.106;11.708;2022-12-17T05:33:04;95894.38;;;-2.09;100.00
1832;BME280;1680;48.106;11.708;2022-12-17T05:35:49;95903.75;;;-2.17;100.00
1832;BME280;1680;48.106;11.708;2022-12-17T05:38:34;95909.78;;;-2.09;100.00
1832;BME280;1680;48.106;11.708;2022-12-17T05:41:19;95904.41;;;-2.15;100.00
1832;BME280;1680;48.106;11.708;2022-12-17T05:44:03;95906.94;;;-1.96;100.00
1832;BME280;1680;48.106;11.708;2022-12-17T05:46:49;95905.84;;;-1.94;100.00
1832;BME280;1680;48.106;11.708;2022-12-17T05:49:33;95913.16;;;-1.90;100.00
1832;BME280;1680;48.106;11.708;2022-12-17T05:52:18;95914.53;;;-1.95;100.00
1832;BME280;1680;48.106;11.708;2022-12-17T05:55:04;95922.63;;;-1.99;100.00
1832;BME280;1680;48.106;11.708;2022-12-17T05:57:49;95918.75;;;-2.03;100.00
1832;BME280;1680;48.106;11.708;2022-12-17T06:00:33;95929.66;;;-2.01;100.00
1832;BME280;1680;48.106;11.708;2022-12-17T06:03:20;95921.16;;;-2.11;100.00
1832;BME280;1680;48.106;11.708;2022-12-17T06:06:05;95928.59;;;-2.08;100.00
1832;BME280;1680;48.106;11.708;2022-12-17T06:09:02;95924.56;;;-2.20;100.00
1832;BME280;1680;48.106;11.708;2022-12-17T06:11:47;95934.56;;;-2.17;100.00
1832;BME280;1680;48.106;11.708;2022-12-17T06:14:31;95939.16;;;-2.11;100.00
1832;BME280;1680;48.106;11.708;2022-12-17T06:17:16;95942.81;;;-2.14;100.00
1832;BME280;1680;48.106;11.708;2022-12-17T06:20:03;95939.81;;;-2.09;100.00
1832;BME280;1680;48.106;11.708;2022-12-17T06:22:57;95954.41;;;-2.00;100.00
1832;BME280;1680;48.106;11.708;2022-12-17T06:25:42;95959.97;;;-2.05;100.00
1832;BME280;1680;48.106;11.708;2022-12-17T06:28:27;95960.78;;;-2.04;100.00
1832;BME280;1680;48.106;11.708;2022-12-17T06:31:15;95959.44;;;-2.08;100.00
1832;BME280;1680;48.106;11.708;2022-12-17T06:34:00;95959.44;;;-2.08;100.00
1832;BME280;1680;48.106;11.708;2022-12-17T06:36:46;95958.91;;;-2.02;100.00
1832;BME280;1680;48.106;11.708;2022-12-17T06:39:31;95971.31;;;-2.07;100.00
1832;BME280;1680;48.106;11.708;2022-12-17T06:42:16;95979.72;;;-2.05;100.00
1832;BME280;1680;48.106;11.708;2022-12-17T06:45:00;95969.28;;;-2.13;100.00
1832;BME280;1680;48.106;11.708;2022-12-17T06:47:45;95976.47;;;-2.17;100.00
1832;BME280;1680;48.106;11.708;2022-12-17T06:50:29;95977.56;;;-2.19;100.00
1832;BME280;1680;48.106;11.708;2022-12-17T06:53:16;95981.84;;;-2.20;100.00
1832;BME280;1680;48.106;11.708;2022-12-17T06:56:00;95983.34;;;-2.36;100.00
1832;BME280;1680;48.106;11.708;2022-12-17T06:58:45;95998.31;;;-2.41;100.00
1832;BME280;1680;48.106;11.708;2022-12-17T07:01:30;95997.91;;;-2.46;100.00
1832;BME280;1680;48.106;11.708;2022-12-17T07:04:29;96005.50;;;-2.35;100.00
1832;BME280;1680;48.106;11.708;2022-12-17T07:07:14;96013.59;;;-2.30;100.00
1832;BME280;1680;48.106;11.708;2022-12-17T07:10:00;96019.41;;;-2.28;100.00
1832;BME280;1680;48.106;11.708;2022-12-17T07:12:45;96018.88;;;-2.41;100.00
1832;BME280;1680;48.106;11.708;2022-12-17T07:15:30;96015.34;;;-2.40;100.00
1832;BME280;1680;48.106;11.708;2022-12-17T07:18:15;96001.84;;;-2.42;100.00
1832;BME280;1680;48.106;11.708;2022-12-17T07:21:00;96013.41;;;-2.57;100.00
1832;BME280;1680;48.106;11.708;2022-12-17T07:23:45;96023.44;;;-2.54;100.00
1832;BME280;1680;48.106;11.708;2022-12-17T07:26:31;96026.78;;;-2.54;100.00
1832;BME280;1680;48.106;11.708;2022-12-17T07:29:16;96024.63;;;-2.58;100.00
1832;BME280;1680;48.106;11.708;2022-12-17T07:32:01;96038.81;;;-2.54;100.00
1832;BME280;1680;48.106;11.708;2022-12-17T07:34:46;96034.81;;;-2.47;100.00
1832;BME280;1680;48.106;11.708;2022-12-17T07:37:31;96043.16;;;-2.45;100.00
1832;BME280;1680;48.106;11.708;2022-12-17T07:40:16;96047.34;;;-2.44;100.00
1832;BME280;1680;48.106;11.708;2022-12-17T07:43:08;96049.69;;;-2.32;100.00
1832;BME280;1680;48.106;11.708;2022-12-17T07:45:53;96046.59;;;-2.35;100.00
1832;BME280;1680;48.106;11.708;2022-12-17T07:48:38;96050.78;;;-2.34;100.00
1832;BME280;1680;48.106;11.708;2022-12-17T07:51:23;96049.72;;;-2.22;100.00
1832;BME280;1680;48.106;11.708;2022-12-17T07:54:08;96050.50;;;-2.31;100.00
1832;BME280;1680;48.106;11.708;2022-12-17T07:56:53;96062.81;;;-2.25;100.00
1832;BME280;1680;48.106;11.708;2022-12-17T07:59:39;96064.69;;;-2.27;100.00
1832;BME280;1680;48.106;11.708;2022-12-17T08:02:24;96062.88;;;-1.88;100.00
1832;BME280;1680;48.106;11.708;2022-12-17T08:05:08;96061.34;;;-2.09;100.00
1832;BME280;1680;48.106;11.708;2022-12-17T08:08:06;96069.47;;;-2.13;100.00
1832;BME280;1680;48.106;11.708;2022-12-17T08:10:51;96061.09;;;-1.96;99.86
1832;BME280;1680;48.106;11.708;2022-12-17T08:13:36;96070.97;;;-2.01;98.93
1832;BME280;1680;48.106;11.708;2022-12-17T08:16:23;96073.53;;;-2.01;99.36
1832;BME280;1680;48.106;11.708;2022-12-17T08:19:11;96080.69;;;-2.14;100.00
1832;BME280;1680;48.106;11.708;2022-12-17T08:21:56;96085.72;;;-2.03;100.00
1832;BME280;1680;48.106;11.708;2022-12-17T08:24:40;96082.22;;;-1.84;99.31
1832;BME280;1680;48.106;11.708;2022-12-17T08:27:37;96091.53;;;-1.83;98.98
1832;BME280;1680;48.106;11.708;2022-12-17T08:30:22;96094.94;;;-1.82;97.84
1832;BME280;1680;48.106;11.708;2022-12-17T08:33:08;96101.41;;;-1.78;99.63
1832;BME280;1680;48.106;11.708;2022-12-17T08:35:53;96104.53;;;-1.93;98.54
1832;BME280;1680;48.106;11.708;2022-12-17T08:38:44;96097.31;;;-2.18;95.86
1832;BME280;1680;48.106;11.708;2022-12-17T08:41:29;96102.03;;;-2.23;95.97
1832;BME280;1680;48.106;11.708;2022-12-17T08:44:14;96098.13;;;-2.18;94.53
1832;BME280;1680;48.106;11.708;2022-12-17T08:46:59;96098.66;;;-2.14;94.55
1832;BME280;1680;48.106;11.708;2022-12-17T08:49:45;96109.47;;;-2.20;96.74
1832;BME280;1680;48.106;11.708;2022-12-17T08:52:29;96111.53;;;-2.05;93.76
1832;BME280;1680;48.106;11.708;2022-12-17T08:55:14;96110.03;;;-2.07;94.17
1832;BME280;1680;48.106;11.708;2022-12-17T08:57:59;96110.38;;;-2.31;94.68
1832;BME280;1680;48.106;11.708;2022-12-17T09:00:44;96112.72;;;-2.09;95.36
1832;BME280;1680;48.106;11.708;2022-12-17T09:03:29;96119.56;;;-2.28;95.42
1832;BME280;1680;48.106;11.708;2022-12-17T09:06:29;96113.97;;;-2.03;95.41
1832;BME280;1680;48.106;11.708;2022-12-17T09:09:23;96116.53;;;-1.94;94.77
1832;BME280;1680;48.106;11.708;2022-12-17T09:12:08;96108.47;;;-1.90;92.73
1832;BME280;1680;48.106;11.708;2022-12-17T09:14:53;96126.81;;;-1.94;93.38
1832;BME280;1680;48.106;11.708;2022-12-17T09:17:37;96138.72;;;-2.02;93.85
1832;BME280;1680;48.106;11.708;2022-12-17T09:20:22;96134.03;;;-1.69;91.30
1832;BME280;1680;48.106;11.708;2022-12-17T09:23:08;96134.59;;;-1.56;91.54
1832;BME280;1680;48.106;11.708;2022-12-17T09:25:54;96133.13;;;-1.59;92.71
1832;BME280;1680;48.106;11.708;2022-12-17T09:28:40;96138.09;;;-1.67;91.21
1832;BME280;1680;48.106;11.708;2022-12-17T09:31:26;96144.47;;;-1.61;91.11
1832;BME280;1680;48.106;11.708;2022-12-17T09:34:11;96151.63;;;-1.65;92.69
1832;BME280;1680;48.106;11.708;2022-12-17T09:36:55;96147.44;;;-1.56;94.07
1832;BME280;1680;48.106;11.708;2022-12-17T09:39:41;96152.75;;;-1.58;93.67
1832;BME280;1680;48.106;11.708;2022-12-17T09:42:31;96158.56;;;-1.65;95.07
1832;BME280;1680;48.106;11.708;2022-12-17T09:45:21;96146.91;;;-1.60;95.31
1832;BME280;1680;48.106;11.708;2022-12-17T09:48:18;96163.84;;;-1.48;93.72
1832;BME280;1680;48.106;11.708;2022-12-17T09:51:18;96168.56;;;-1.43;94.23
1832;BME280;1680;48.106;11.708;2022-12-17T09:54:05;96168.59;;;-1.24;92.76
1832;BME280;1680;48.106;11.708;2022-12-17T09:56:56;96170.59;;;-1.47;91.79
1832;BME280;1680;48.106;11.708;2022-12-17T09:59:42;96171.00;;;-1.42;92.95
1832;BME280;1680;48.106;11.708;2022-12-17T10:02:29;96171.53;;;-1.57;93.53
1832;BME280;1680;48.106;11.708;2022-12-17T10:05:19;96177.38;;;-1.46;95.19
1832;BME280;1680;48.106;11.708;2022-12-17T10:08:05;96175.47;;;-1.34;94.25
1832;BME280;1680;48.106;11.708;2022-12-17T10:10:51;96177.09;;;-1.24;93.17
1832;BME280;1680;48.106;11.708;2022-12-17T10:13:40;96178.31;;;-1.18;93.99
1832;BME280;1680;48.106;11.708;2022-12-17T10:16:27;96172.91;;;-1.06;93.74
1832;BME280;1680;48.106;11.708;2022-12-17T10:19:14;96174.78;;;-0.89;93.96
1832;BME280;1680;48.106;11.708;2022-12-17T10:22:08;96178.56;;;-0.74;93.40
1832;BME280;1680;48.106;11.708;2022-12-17T10:24:54;96174.44;;;-0.48;89.68
1832;BME280;1680;48.106;11.708;2022-12-17T10:27:38;96177.03;;;-0.67;89.05
1832;BME280;1680;48.106;11.708;2022-12-17T10:30:25;96172.31;;;-0.62;91.35
1832;BME280;1680;48.106;11.708;2022-12-17T10:33:14;96179.91;;;-0.61;92.16
1832;BME280;1680;48.106;11.708;2022-12-17T10:36:02;96175.03;;;-0.64;91.65
1832;BME280;1680;48.106;11.708;2022-12-17T10:38:52;96171.19;;;-0.50;90.97
1832;BME280;1680;48.106;11.708;2022-12-17T10:41:40;96185.59;;;-0.57;91.44
1832;BME280;1680;48.106;11.708;2022-12-17T10:44:27;96178.81;;;-0.58;91.39
1832;BME280;1680;48.106;11.708;2022-12-17T10:47:15;96192.47;;;-0.48;92.00
1832;BME280;1680;48.106;11.708;2022-12-17T10:50:02;96185.31;;;-0.54;91.19
1832;BME280;1680;48.106;11.708;2022-12-17T10:52:47;96183.09;;;-0.49;92.02
1832;BME280;1680;48.106;11.708;2022-12-17T10:55:33;96202.38;;;-0.53;91.52
1832;BME280;1680;48.106;11.708;2022-12-17T10:58:20;96209.41;;;-0.46;91.82
1832;BME280;1680;48.106;11.708;2022-12-17T11:01:09;96212.69;;;-0.53;92.15
1832;BME280;1680;48.106;11.708;2022-12-17T11:03:56;96212.72;;;-0.72;93.30
1832;BME280;1680;48.106;11.708;2022-12-17T11:06:44;96204.03;;;-0.81;93.16
1832;BME280;1680;48.106;11.708;2022-12-17T11:09:35;96211.09;;;-0.73;92.97
1832;BME280;1680;48.106;11.708;2022-12-17T11:12:27;96213.50;;;-0.53;92.16
1832;BME280;1680;48.106;11.708;2022-12-17T11:15:18;96211.88;;;-0.54;91.69
1832;BME280;1680;48.106;11.708;2022-12-17T11:18:05;96208.72;;;-0.38;90.29
1832;BME280;1680;48.106;11.708;2022-12-17T11:20:58;96215.59;;;-0.29;91.02
1832;BME280;1680;48.106;11.708;2022-12-17T11:23:48;96214.16;;;0.31;100.00
1832;BME280;1680;48.106;11.708;2022-12-17T11:26:37;96211.44;;;0.77;97.83
1832;BME280;1680;48.106;11.708;2022-12-17T11:29:23;96211.03;;;0.72;89.54
1832;BME280;1680;48.106;11.708;2022-12-17T11:32:26;96211.66;;;0.39;89.43
1832;BME280;1680;48.106;11.708;2022-12-17T11:35:18;96207.22;;;0.32;90.69
1832;BME280;1680;48.106;11.708;2022-12-17T11:38:14;96201.72;;;0.17;87.98
1832;BME280;1680;48.106;11.708;2022-12-17T11:41:07;96203.56;;;0.07;88.02
1832;BME280;1680;48.106;11.708;2022-12-17T11:44:02;96210.94;;;-0.16;89.21
1832;BME280;1680;48.106;11.708;2022-12-17T11:47:14;96213.19;;;0.05;92.05
1832;BME280;1680;48.106;11.708;2022-12-17T11:50:21;96204.28;;;-0.09;90.02
1832;BME280;1680;48.106;11.708;2022-12-17T11:53:27;96206.94;;;-0.28;90.21
1832;BME280;1680;48.106;11.708;2022-12-17T11:56:22;96201.78;;;-0.28;89.54
1832;BME280;1680;48.106;11.708;2022-12-17T11:59:15;96204.22;;;-0.36;91.13
1832;BME280;1680;48.106;11.708;2022-12-17T12:02:14;96211.81;;;-0.25;92.30
1832;BME280;1680;48.106;11.708;2022-12-17T12:05:18;96202.28;;;-0.25;90.85
1832;BME280;1680;48.106;11.708;2022-12-17T12:08:17;96206.00;;;-0.37;90.90
1832;BME280;1680;48.106;11.708;2022-12-17T12:11:10;96212.34;;;-0.31;91.24
1832;BME280;1680;48.106;11.708;2022-12-17T12:13:59;96194.31;;;-0.31;89.82
1832;BME280;1680;48.106;11.708;2022-12-17T12:16:53;96205.81;;;-0.26;91.10
1832;BME280;1680;48.106;11.708;2022-12-17T12:19:48;96203.94;;;-0.33;91.77
1832;BME280;1680;48.106;11.708;2022-12-17T12:22:40;96208.81;;;-0.30;91.82
1832;BME280;1680;48.106;11.708;2022-12-17T12:25:37;96207.63;;;0.00;97.26
1832;BME280;1680;48.106;11.708;2022-12-17T12:28:29;96217.81;;;-0.07;94.01
1832;BME280;1680;48.106;11.708;2022-12-17T12:31:26;96208.56;;;-0.27;92.62
1832;BME280;1680;48.106;11.708;2022-12-17T12:34:17;96216.94;;;-0.16;92.24
1832;BME280;1680;48.106;11.708;2022-12-17T12:37:04;96225.06;;;-0.20;92.55
1832;BME280;1680;48.106;11.708;2022-12-17T12:39:54;96221.06;;;-0.05;96.28
1832;BME280;1680;48.106;11.708;2022-12-17T12:42:46;96218.00;;;-0.18;93.57
1832;BME280;1680;48.106;11.708;2022-12-17T12:45:39;96222.34;;;-0.09;93.08
1832;BME280;1680;48.106;11.708;2022-12-17T12:48:33;96219.75;;;-0.09;93.22
1832;BME280;1680;48.106;11.708;2022-12-17T12:51:25;96219.63;;;-0.17;91.66
1832;BME280;1680;48.106;11.708;2022-12-17T12:54:27;96221.69;;;-0.21;92.27
1832;BME280;1680;48.106;11.708;2022-12-17T12:57:30;96186.09;;;-0.54;92.39
1832;BME280;1680;48.106;11.708;2022-12-17T13:00:36;96224.19;;;0.07;100.00
1832;BME280;1680;48.106;11.708;2022-12-17T13:03:27;96222.69;;;-0.04;92.89
1832;BME280;1680;48.106;11.708;2022-12-17T13:06:35;96226.97;;;-0.22;92.42
1832;BME280;1680;48.106;11.708;2022-12-17T13:12:21;96221.81;;;-0.22;93.28
1832;BME280;1680;48.106;11.708;2022-12-17T13:14:53;96218.72;;;-0.35;90.96
1832;BME280;1680;48.106;11.708;2022-12-17T13:17:30;96216.16;;;-0.35;92.12
1832;BME280;1680;48.106;11.708;2022-12-17T13:20:00;96221.97;;;-0.33;92.53
1832;BME280;1680;48.106;11.708;2022-12-17T13:22:28;96225.91;;;-0.29;93.60
1832;BME280;1680;48.106;11.708;2022-12-17T13:25:16;96224.97;;;-0.38;94.02
1832;BME280;1680;48.106;11.708;2022-12-17T13:27:43;96240.00;;;-0.33;94.40
1832;BME280;1680;48.106;11.708;2022-12-17T13:30:22;96238.28;;;-0.33;94.61
1832;BME280;1680;48.106;11.708;2022-12-17T13:33:02;96239.22;;;-0.43;93.05
1832;BME280;1680;48.106;11.708;2022-12-17T13:35:37;96227.59;;;-0.57;93.72
1832;BME280;1680;48.106;11.708;2022-12-17T13:38:15;96230.81;;;-0.45;93.49
1832;BME280;1680;48.106;11.708;2022-12-17T13:40:59;96245.31;;;-0.35;93.29
1832;BME280;1680;48.106;11.708;2022-12-17T13:43:31;96244.66;;;-0.46;93.71
1832;BME280;1680;48.106;11.708;2022-12-17T13:45:59;96252.53;;;-0.38;95.50
1832;BME280;1680;48.106;11.708;2022-12-17T13:48:27;96242.22;;;-0.48;94.07
1832;BME280;1680;48.106;11.708;2022-12-17T13:50:56;96254.53;;;-0.51;93.87
1832;BME280;1680;48.106;11.708;2022-12-17T13:53:25;96254.16;;;-0.47;93.18
1832;BME280;1680;48.106;11.708;2022-12-17T13:55:56;96261.66;;;0.83;100.00
1832;BME280;1680;48.106;11.708;2022-12-17T13:58:26;96271.69;;;2.23;100.00
1832;BME280;1680;48.106;11.708;2022-12-17T14:01:03;96268.31;;;1.37;100.00
1832;BME280;1680;48.106;11.708;2022-12-17T14:03:31;96241.84;;;0.56;100.00
1832;BME280;1680;48.106;11.708;2022-12-17T14:05:58;96276.28;;;0.38;100.00
1832;BME280;1680;48.106;11.708;2022-12-17T14:08:29;96283.06;;;0.02;99.39
1832;BME280;1680;48.106;11.708;2022-12-17T14:10:58;96276.91;;;-0.23;97.88
1832;BME280;1680;48.106;11.708;2022-12-17T14:13:40;96275.28;;;-0.43;97.03
1832;BME280;1680;48.106;11.708;2022-12-17T14:16:08;96291.56;;;-0.52;97.32
1832;BME280;1680;48.106;11.708;2022-12-17T14:18:36;96291.84;;;-0.55;96.91
1832;BME280;1680;48.106;11.708;2022-12-17T14:21:07;96289.41;;;-0.66;97.55
1832;BME280;1680;48.106;11.708;2022-12-17T14:23:35;96296.31;;;-0.76;97.21
1832;BME280;1680;48.106;11.708;2022-12-17T14:26:04;96301.47;;;-0.76;97.86
1832;BME280;1680;48.106;11.708;2022-12-17T14:28:33;96302.66;;;-0.80;98.15
1832;BME280;1680;48.106;11.708;2022-12-17T14:31:06;96296.72;;;-0.90;96.78
1832;BME280;1680;48.106;11.708;2022-12-17T14:33:35;96309.44;;;-0.98;97.27
1832;BME280;1680;48.106;11.708;2022-12-17T14:36:06;96303.19;;;-1.05;97.29
1832;BME280;1680;48.106;11.708;2022-12-17T14:38:34;96309.81;;;-1.12;97.52
1832;BME280;1680;48.106;11.708;2022-12-17T14:41:05;96310.38;;;-1.08;97.56
1832;BME280;1680;48.106;11.708;2022-12-17T14:43:55;96316.19;;;-1.16;97.36
1832;BME280;1680;48.106;11.708;2022-12-17T14:46:23;96299.91;;;-1.35;97.96
1832;BME280;1680;48.106;11.708;2022-12-17T14:48:54;96318.97;;;-1.38;97.91